createdAt,value
2019-05-09T00:04:03.356Z,38.20
2019-05-09T00:06:33.808Z,36.87
2019-05-09T00:09:03.591Z,39.97
2019-05-09T00:11:33.561Z,39.83
2019-05-09T00:14:01.620Z,43.87
2019-05-09T00:16:29.902Z,37.63
2019-05-09T00:18:58.169Z,35.60
2019-05-09T00:21:45.559Z,35.48
2019-05-09T00:24:33.377Z,34.20
2019-05-09T00:27:03.651Z,29.47
2019-05-09T00:29:52.997Z,29.63
2019-05-09T00:32:39.849Z,25.50
2019-05-09T00:35:27.299Z,25.00
2019-05-09T00:40:34.540Z,30.93
2019-05-09T00:43:03.889Z,20.17
2019-05-09T00:45:54.086Z,23.55
2019-05-09T00:51:03.277Z,22.23
2019-05-09T00:53:30.969Z,22.97
2019-05-09T00:55:59.238Z,22.27
2019-05-09T00:58:27.510Z,21.50
2019-05-09T01:01:35.817Z,17.30
2019-05-09T01:04:38.160Z,24.77
2019-05-09T01:07:06.433Z,23.23
2019-05-09T01:09:34.713Z,20.37
2019-05-09T01:12:04.141Z,19.83
2019-05-09T01:14:33.891Z,20.30
2019-05-09T01:17:04.381Z,20.02
2019-05-09T01:22:03.745Z,17.25
2019-05-09T01:24:33.779Z,14.05
2019-05-09T01:27:03.634Z,13.20
2019-05-09T01:29:33.729Z,13.87
2019-05-09T01:32:36.798Z,12.47
2019-05-09T01:35:39.296Z,13.37
2019-05-09T01:40:53.416Z,13.45
2019-05-09T01:43:21.640Z,14.20
2019-05-09T01:45:49.971Z,12.78
2019-05-09T01:48:18.190Z,12.63
2019-05-09T01:50:46.466Z,14.90
2019-05-09T01:56:03.950Z,12.65
2019-05-09T01:58:34.510Z,9.80
2019-05-09T02:03:44.292Z,12.80
2019-05-09T02:09:00.058Z,12.70
2019-05-09T02:12:26.173Z,11.17
2019-05-09T02:15:13.553Z,12.53
2019-05-09T02:20:32.736Z,14.17
2019-05-09T02:23:00.771Z,13.77
2019-05-09T02:25:29.051Z,18.10
2019-05-09T02:27:57.321Z,21.20
2019-05-09T02:30:25.731Z,24.77
2019-05-09T02:32:54.705Z,18.80
2019-05-09T02:35:23.967Z,21.35
2019-05-09T02:37:52.237Z,21.27
2019-05-09T02:40:20.588Z,23.50
2019-05-09T02:42:49.236Z,22.10
2019-05-09T02:47:59.004Z,25.43
2019-05-09T02:50:28.683Z,24.35
2019-05-09T02:52:59.077Z,24.35
2019-05-09T02:55:28.875Z,21.23
2019-05-09T03:00:59.441Z,18.97
2019-05-09T03:03:48.062Z,19.10
2019-05-09T03:06:15.075Z,20.27
2019-05-09T03:08:43.348Z,19.87
2019-05-09T03:11:11.621Z,27.40
2019-05-09T03:13:40.474Z,22.22
2019-05-09T03:24:39.367Z,26.40
2019-05-09T03:32:38.727Z,24.60
2019-05-09T03:35:48.103Z,24.92
2019-05-09T03:38:17.941Z,24.90
2019-05-09T03:40:47.654Z,25.13
2019-05-09T03:43:18.205Z,25.30
2019-05-09T03:46:07.685Z,24.77
2019-05-09T03:48:54.314Z,22.70
2019-05-09T03:51:22.592Z,24.30
2019-05-09T03:54:10.193Z,30.33
2019-05-09T03:56:57.588Z,27.75
2019-05-09T03:59:27.878Z,29.37
2019-05-09T04:01:55.844Z,33.63
2019-05-09T04:04:38.350Z,30.27
2019-05-09T04:07:08.439Z,28.50
2019-05-09T04:09:37.533Z,31.13
2019-05-09T04:12:07.551Z,31.80
2019-05-09T04:17:15.595Z,33.97
2019-05-09T04:19:43.915Z,31.87
2019-05-09T04:22:12.143Z,35.07
2019-05-09T04:24:40.498Z,31.20
2019-05-09T04:29:57.738Z,36.43
2019-05-09T04:32:27.364Z,32.67
2019-05-09T04:34:57.816Z,36.87
2019-05-09T04:37:28.107Z,33.07
2019-05-09T04:39:59.502Z,34.00
2019-05-09T04:42:28.250Z,30.33
2019-05-09T04:45:15.131Z,36.98
2019-05-09T04:48:02.756Z,33.63
2019-05-09T04:50:31.030Z,33.70
2019-05-09T04:52:59.317Z,30.83
2019-05-09T04:58:09.087Z,35.20
2019-05-09T05:00:57.302Z,32.50
2019-05-09T05:03:25.661Z,30.57
2019-05-09T05:05:53.975Z,29.60
2019-05-09T05:08:22.244Z,30.75
2019-05-09T05:10:50.519Z,31.53
2019-05-09T05:13:26.317Z,30.33
2019-05-09T05:15:48.776Z,33.17
2019-05-09T05:18:17.415Z,31.23
2019-05-09T05:20:48.185Z,26.93
2019-05-09T05:23:38.095Z,31.40
2019-05-09T05:26:06.251Z,28.60
2019-05-09T05:28:34.533Z,32.13
2019-05-09T05:31:02.806Z,30.48
2019-05-09T05:33:53.787Z,25.30
2019-05-09T05:38:59.224Z,23.10
2019-05-09T05:41:28.499Z,24.93
2019-05-09T05:43:58.119Z,25.23
2019-05-09T05:46:50.139Z,26.13
2019-05-09T05:49:18.598Z,29.33
2019-05-09T05:52:07.905Z,25.70
2019-05-09T05:54:37.682Z,29.07
2019-05-09T05:57:08.211Z,25.57
2019-05-09T05:59:40.428Z,31.10
2019-05-09T06:02:08.325Z,28.40
2019-05-09T06:04:37.930Z,28.20
2019-05-09T06:07:07.703Z,32.93
2019-05-09T06:09:37.728Z,34.20
2019-05-09T06:12:25.028Z,33.45
2019-05-09T06:14:53.301Z,34.40
2019-05-09T06:17:21.558Z,35.17
2019-05-09T06:19:49.834Z,31.77
2019-05-09T06:22:18.484Z,33.85
2019-05-09T06:24:48.122Z,39.73
2019-05-09T06:27:18.251Z,35.63
2019-05-09T06:29:47.722Z,35.70
2019-05-09T06:32:18.738Z,39.27
2019-05-09T06:34:47.738Z,35.60
2019-05-09T06:37:18.384Z,43.03
2019-05-09T06:39:48.468Z,37.40
2019-05-09T06:45:58.092Z,47.00
2019-05-09T06:48:28.394Z,51.25
2019-05-09T06:50:57.674Z,50.58
2019-05-09T06:53:27.265Z,52.70
2019-05-09T06:55:57.991Z,51.53
2019-05-09T06:58:45.137Z,47.35
2019-05-09T07:01:32.574Z,54.60
2019-05-09T07:04:19.997Z,56.20
2019-05-09T07:12:07.860Z,54.03
2019-05-09T07:17:15.176Z,58.20
2019-05-09T07:19:44.117Z,56.40
2019-05-09T07:22:32.575Z,49.87
2019-05-09T07:25:19.984Z,53.63
2019-05-09T07:27:48.545Z,54.83
2019-05-09T07:30:57.327Z,47.73
2019-05-09T07:36:14.629Z,55.03
2019-05-09T07:38:42.897Z,52.67
2019-05-09T07:41:11.183Z,46.10
2019-05-09T07:43:39.646Z,47.27
2019-05-09T07:46:28.526Z,48.85
2019-05-09T07:49:17.577Z,48.83
2019-05-09T07:51:47.739Z,45.07
2019-05-09T07:54:24.852Z,42.88
2019-05-09T07:56:48.490Z,41.88
2019-05-09T07:59:18.084Z,47.13
2019-05-09T08:01:48.476Z,47.20
2019-05-09T08:04:18.257Z,46.23
2019-05-09T08:06:48.615Z,43.87
2019-05-09T08:09:18.505Z,44.23
2019-05-09T08:11:48.318Z,44.83
2019-05-09T08:14:29.439Z,50.77
2019-05-09T08:17:28.632Z,46.43
2019-05-09T08:19:58.330Z,44.33
2019-05-09T08:22:31.868Z,42.70
2019-05-09T08:24:57.630Z,39.37
2019-05-09T08:27:30.141Z,41.03
2019-05-09T08:29:58.380Z,38.40
2019-05-09T08:32:28.663Z,39.92
2019-05-09T08:34:57.815Z,38.40
2019-05-09T08:37:28.295Z,38.05
2019-05-09T08:39:57.814Z,37.35
2019-05-09T08:42:26.226Z,30.02
2019-05-09T08:44:54.497Z,29.67
2019-05-09T08:47:22.769Z,27.70
2019-05-09T08:52:30.005Z,29.73
2019-05-09T08:57:48.176Z,31.00
2019-05-09T09:00:18.917Z,30.70
2019-05-09T09:02:48.214Z,30.70
2019-05-09T09:05:18.676Z,32.03
2019-05-09T09:07:48.555Z,33.67
2019-05-09T09:10:18.698Z,39.10
2019-05-09T09:12:47.887Z,33.83
2019-05-09T09:15:18.030Z,38.23
2019-05-09T09:17:49.118Z,37.13
2019-05-09T09:20:18.174Z,40.40
2019-05-09T09:22:48.095Z,32.80
2019-05-09T09:25:18.373Z,35.33
2019-05-09T09:27:50.864Z,36.77
2019-05-09T09:30:51.541Z,31.97
2019-05-09T09:33:19.825Z,28.05
2019-05-09T09:35:48.883Z,27.25
2019-05-09T09:38:18.107Z,31.87
2019-05-09T09:40:47.760Z,31.77
2019-05-09T09:43:17.631Z,34.47
2019-05-09T09:45:48.102Z,31.77
2019-05-09T09:48:18.084Z,31.93
2019-05-09T09:50:50.917Z,31.40
2019-05-09T09:53:18.466Z,28.43
2019-05-09T09:55:47.624Z,29.00
2019-05-09T09:58:19.048Z,30.30
2019-05-09T10:01:28.768Z,25.87
2019-05-09T10:06:48.082Z,20.70
2019-05-09T10:09:17.455Z,19.95
2019-05-09T10:11:48.111Z,22.32
2019-05-09T10:17:18.014Z,15.48
2019-05-09T10:20:06.379Z,15.93
2019-05-09T10:22:34.669Z,15.10
2019-05-09T10:25:02.931Z,15.00
2019-05-09T10:27:31.201Z,14.77
2019-05-09T10:29:59.651Z,13.77
2019-05-09T10:32:28.898Z,16.57
2019-05-09T10:34:58.217Z,15.45
2019-05-09T10:37:48.556Z,13.37
2019-05-09T10:40:53.299Z,13.77
2019-05-09T10:46:19.468Z,12.15
2019-05-09T10:51:26.885Z,12.13
2019-05-09T10:53:55.180Z,11.12
2019-05-09T10:56:23.451Z,9.87
2019-05-09T10:58:51.716Z,10.97
2019-05-09T11:01:19.988Z,8.80
2019-05-09T11:03:48.627Z,9.30
2019-05-09T11:06:18.731Z,8.10
2019-05-09T11:08:48.233Z,8.30
2019-05-09T11:11:18.347Z,8.63
2019-05-09T11:13:48.285Z,9.90
2019-05-09T11:16:18.332Z,9.53
2019-05-09T11:18:48.306Z,9.75
2019-05-09T11:21:18.874Z,8.88
2019-05-09T11:23:48.807Z,10.60
2019-05-09T11:26:17.928Z,9.20
2019-05-09T11:28:46.529Z,9.80
2019-05-09T11:31:15.748Z,10.80
2019-05-09T11:33:44.841Z,11.50
2019-05-09T11:36:13.499Z,10.07
2019-05-09T11:38:44.090Z,9.03
2019-05-09T11:41:13.114Z,7.30
2019-05-09T11:43:41.391Z,6.62
2019-05-09T11:46:10.470Z,5.25
2019-05-09T11:48:39.670Z,7.25
2019-05-09T11:51:08.991Z,6.90
2019-05-09T11:53:40.164Z,3.97
2019-05-09T11:56:08.380Z,4.57
2019-05-09T11:58:49.905Z,4.83
2019-05-09T12:01:18.885Z,3.83
2019-05-09T12:03:52.044Z,5.77
2019-05-09T12:06:19.996Z,4.53
2019-05-09T12:08:48.469Z,5.20
2019-05-09T12:11:18.708Z,4.55
2019-05-09T12:13:48.895Z,5.40
2019-05-09T12:16:18.925Z,4.83
2019-05-09T12:18:48.989Z,6.30
2019-05-09T12:21:19.459Z,5.00
2019-05-09T12:23:49.123Z,12.00
2019-05-09T12:26:18.382Z,5.40
2019-05-09T12:28:48.270Z,5.63
2019-05-09T12:31:18.122Z,5.50
2019-05-09T12:33:48.419Z,6.33
2019-05-09T12:36:28.889Z,6.20
2019-05-09T12:38:59.144Z,6.60
2019-05-09T12:41:31.672Z,5.97
2019-05-09T12:43:57.489Z,6.53
2019-05-09T12:46:28.440Z,4.87
2019-05-09T12:48:59.068Z,5.97
2019-05-09T12:51:28.144Z,5.55
2019-05-09T12:53:57.812Z,5.37
2019-05-09T12:56:28.605Z,4.50
2019-05-09T12:58:57.864Z,5.27
2019-05-09T13:01:27.093Z,5.30
2019-05-09T13:03:58.063Z,5.33
2019-05-09T13:06:25.369Z,5.27
2019-05-09T13:08:53.639Z,4.23
2019-05-09T13:11:21.913Z,3.77
2019-05-09T13:13:50.181Z,4.63
2019-05-09T13:16:45.598Z,4.08
2019-05-09T13:19:27.921Z,2.87
2019-05-09T13:21:58.783Z,3.47
2019-05-09T13:24:28.343Z,2.93
2019-05-09T13:27:09.205Z,3.15
2019-05-09T13:29:38.213Z,2.80
2019-05-09T13:32:08.794Z,2.33
2019-05-09T13:34:38.037Z,3.10
2019-05-09T13:37:09.142Z,2.60
2019-05-09T13:39:39.741Z,3.25
2019-05-09T13:42:08.147Z,2.80
2019-05-09T13:44:41.220Z,4.67
2019-05-09T13:47:10.654Z,3.35
2019-05-09T13:49:39.500Z,4.85
2019-05-09T13:52:20.903Z,2.00
2019-05-09T13:54:49.153Z,2.50
2019-05-09T13:57:18.867Z,2.80
2019-05-09T13:59:48.595Z,3.03
2019-05-09T14:02:18.747Z,2.87
2019-05-09T14:04:48.659Z,2.00
2019-05-09T14:07:19.254Z,5.23
2019-05-09T14:09:48.361Z,1.87
2019-05-09T14:12:17.761Z,3.00
2019-05-09T14:14:47.412Z,1.63
2019-05-09T14:17:18.757Z,2.10
2019-05-09T14:19:50.193Z,2.25
2019-05-09T14:22:17.941Z,2.87
2019-05-09T14:24:45.633Z,2.30
2019-05-09T14:27:13.908Z,2.67
2019-05-09T14:29:42.156Z,2.42
2019-05-09T14:32:10.429Z,3.27
2019-05-09T14:34:42.371Z,2.10
2019-05-09T14:37:09.633Z,3.37
2019-05-09T14:39:54.516Z,2.47
2019-05-09T14:42:09.283Z,1.90
2019-05-09T14:44:38.635Z,1.80
2019-05-09T14:47:08.089Z,1.63
2019-05-09T14:49:43.094Z,1.70
2019-05-09T14:52:08.084Z,2.70
2019-05-09T14:54:39.206Z,2.85
2019-05-09T14:57:09.661Z,1.94
2019-05-09T15:00:18.838Z,3.15
2019-05-09T15:02:48.945Z,2.43
2019-05-09T15:05:30.281Z,2.00
2019-05-09T15:07:59.419Z,2.97
2019-05-09T15:10:28.530Z,4.33
2019-05-09T15:12:58.525Z,3.17
2019-05-09T15:15:32.021Z,2.50
2019-05-09T15:18:17.599Z,2.50
2019-05-09T15:20:47.820Z,3.70
2019-05-09T15:23:15.872Z,1.90
2019-05-09T15:25:44.135Z,2.20
2019-05-09T15:28:12.418Z,2.87
2019-05-09T15:30:40.674Z,2.37
2019-05-09T15:33:08.951Z,2.30
2019-05-09T15:35:39.118Z,2.00
2019-05-09T15:38:08.615Z,2.20
2019-05-09T15:40:38.642Z,2.25
2019-05-09T15:43:08.307Z,2.70
2019-05-09T15:45:58.192Z,3.87
2019-05-09T15:48:27.462Z,2.67
2019-05-09T15:50:58.249Z,3.08
2019-05-09T15:53:27.833Z,2.57
2019-05-09T15:55:58.614Z,2.70
2019-05-09T15:58:28.590Z,2.20
2019-05-09T16:00:58.651Z,2.83
2019-05-09T16:03:27.900Z,2.40
2019-05-09T16:05:58.434Z,2.60
2019-05-09T16:08:28.675Z,2.80
2019-05-09T16:10:58.126Z,2.07
2019-05-09T16:13:28.301Z,2.10
2019-05-09T16:15:57.599Z,2.27
2019-05-09T16:18:28.609Z,2.63
2019-05-09T16:20:58.042Z,2.37
2019-05-09T16:23:28.854Z,4.47
2019-05-09T16:25:58.638Z,2.47
2019-05-09T16:28:26.253Z,2.70
2019-05-09T16:30:54.516Z,2.70
2019-05-09T16:33:22.800Z,4.20
2019-05-09T16:35:52.833Z,2.97
2019-05-09T16:38:21.055Z,2.10
2019-05-09T16:41:08.660Z,2.63
2019-05-09T16:43:39.198Z,2.30
2019-05-09T16:46:07.574Z,3.00
2019-05-09T16:48:36.911Z,3.33
2019-05-09T16:51:07.746Z,4.33
2019-05-09T16:53:35.230Z,3.87
2019-05-09T16:56:03.481Z,2.50
2019-05-09T16:58:32.104Z,2.83
2019-05-09T17:03:41.305Z,2.47
2019-05-09T17:06:09.559Z,2.30
2019-05-09T17:08:38.566Z,3.03
2019-05-09T17:11:07.825Z,2.77
2019-05-09T17:13:36.111Z,2.83
2019-05-09T17:16:04.367Z,6.40
2019-05-09T17:18:32.642Z,2.60
2019-05-09T17:21:24.201Z,3.27
2019-05-09T17:23:50.039Z,2.70
2019-05-09T17:26:58.335Z,2.60
2019-05-09T17:29:28.049Z,2.17
2019-05-09T17:31:58.406Z,3.55
2019-05-09T17:34:28.659Z,2.50
2019-05-09T17:36:56.635Z,3.25
2019-05-09T17:39:24.897Z,1.87
2019-05-09T17:41:53.166Z,2.00
2019-05-09T17:44:21.445Z,2.17
2019-05-09T17:46:49.710Z,2.12
2019-05-09T17:49:17.991Z,2.33
2019-05-09T17:51:48.221Z,2.57
2019-05-09T17:54:18.257Z,4.03
2019-05-09T17:56:48.255Z,3.50
2019-05-09T17:59:18.462Z,1.85
2019-05-09T18:01:48.231Z,2.23
2019-05-09T18:04:17.942Z,2.93
2019-05-09T18:06:48.676Z,1.90
2019-05-09T18:09:18.783Z,1.90
2019-05-09T18:11:48.285Z,2.23
2019-05-09T18:14:18.534Z,1.95
2019-05-09T18:16:47.815Z,1.97
2019-05-09T18:19:17.845Z,1.87
2019-05-09T18:22:19.926Z,2.10
2019-05-09T18:25:08.313Z,2.47
2019-05-09T18:27:37.942Z,2.47
2019-05-09T18:30:41.260Z,3.47
2019-05-09T18:35:48.458Z,2.30
2019-05-09T18:38:38.602Z,2.20
2019-05-09T18:41:07.946Z,2.03
2019-05-09T18:43:36.052Z,2.63
2019-05-09T18:46:04.319Z,2.60
2019-05-09T18:48:32.592Z,2.70
2019-05-09T18:51:00.871Z,2.73
2019-05-09T18:53:29.126Z,3.17
2019-05-09T18:55:57.398Z,2.75
2019-05-09T18:58:25.676Z,2.98
2019-05-09T19:03:55.525Z,5.15
2019-05-09T19:06:23.786Z,3.30
2019-05-09T19:08:52.048Z,3.35
2019-05-09T19:11:20.309Z,3.67
2019-05-09T19:13:48.616Z,4.53
2019-05-09T19:16:35.981Z,3.63
2019-05-09T19:22:06.398Z,3.67
2019-05-09T19:24:32.411Z,3.40
2019-05-09T19:27:00.704Z,3.40
2019-05-09T19:29:28.954Z,4.00
2019-05-09T19:31:57.208Z,5.30
2019-05-09T19:34:25.483Z,3.47
2019-05-09T19:36:53.760Z,3.40
2019-05-09T19:39:22.021Z,3.80
2019-05-09T19:41:50.293Z,3.60
2019-05-09T19:44:18.554Z,3.40
2019-05-09T19:46:46.833Z,3.83
2019-05-09T19:49:15.100Z,3.80
2019-05-09T19:51:43.362Z,3.93
2019-05-09T19:54:11.657Z,3.63
2019-05-09T19:56:39.929Z,5.33
2019-05-09T19:59:08.724Z,3.63
2019-05-09T20:01:38.214Z,3.30
2019-05-09T20:04:06.645Z,4.97
2019-05-09T20:06:34.907Z,3.92
2019-05-09T20:12:30.423Z,3.92
2019-05-09T20:14:58.697Z,4.23
2019-05-09T20:17:26.978Z,3.10
2019-05-09T20:19:55.239Z,4.30
2019-05-09T20:22:23.570Z,3.47
2019-05-09T20:24:51.787Z,3.93
2019-05-09T20:27:20.060Z,3.77
2019-05-09T20:29:48.337Z,2.80
2019-05-09T20:32:16.598Z,3.10
2019-05-09T20:34:44.891Z,3.60
2019-05-09T20:37:13.160Z,3.47
2019-05-09T20:39:41.647Z,4.83
2019-05-09T20:42:10.115Z,3.80
2019-05-09T20:44:38.560Z,4.10
2019-05-09T20:47:07.041Z,4.10
2019-05-09T20:49:35.469Z,4.53
2019-05-09T20:52:03.930Z,4.33
2019-05-09T20:54:32.378Z,4.07
2019-05-09T20:57:00.861Z,4.60
2019-05-09T20:59:29.297Z,3.73
2019-05-09T21:01:57.750Z,5.60
2019-05-09T21:04:26.234Z,4.10
2019-05-09T21:06:54.690Z,4.43
2019-05-09T21:09:23.158Z,4.40
2019-05-09T21:11:51.614Z,4.08
2019-05-09T21:14:20.068Z,4.40
2019-05-09T21:16:48.517Z,4.25
2019-05-09T21:19:16.990Z,5.17
2019-05-09T21:21:45.445Z,4.62
2019-05-09T21:24:13.891Z,4.80
2019-05-09T21:26:42.351Z,5.05
2019-05-09T21:29:10.813Z,6.30
2019-05-09T21:31:39.267Z,5.20
2019-05-09T21:34:07.725Z,3.90
2019-05-09T21:36:36.003Z,4.60
2019-05-09T21:39:44.302Z,4.53
2019-05-09T21:42:12.565Z,4.50
2019-05-09T21:44:40.842Z,6.63
2019-05-09T21:47:09.110Z,4.33
2019-05-09T21:49:37.377Z,4.70
2019-05-09T21:52:05.651Z,4.67
2019-05-09T21:54:33.909Z,4.63
2019-05-09T21:57:02.188Z,4.90
2019-05-09T21:59:30.468Z,5.47
2019-05-09T22:01:58.868Z,4.17
2019-05-09T22:04:27.138Z,4.83
2019-05-09T22:06:55.393Z,5.78
2019-05-09T22:09:23.646Z,5.87
2019-05-09T22:11:51.916Z,5.00
2019-05-09T22:14:20.200Z,5.90
2019-05-09T22:19:27.403Z,5.60
2019-05-09T22:21:55.691Z,5.50
2019-05-09T22:24:23.954Z,5.33
2019-05-09T22:26:52.235Z,4.83
2019-05-09T22:29:20.498Z,5.92
2019-05-09T22:31:48.807Z,6.47
2019-05-09T22:34:17.064Z,5.57
2019-05-09T22:36:45.323Z,6.28
2019-05-09T22:39:13.607Z,5.03
2019-05-09T22:41:41.867Z,5.42
2019-05-09T22:44:10.142Z,6.03
2019-05-09T22:46:38.407Z,5.03
2019-05-09T22:49:06.684Z,4.93
2019-05-09T22:51:34.942Z,5.23
2019-05-09T22:54:12.197Z,5.15
2019-05-09T22:56:33.230Z,5.03
2019-05-09T22:59:01.749Z,5.77
2019-05-09T23:01:30.031Z,5.90
2019-05-09T23:04:17.625Z,5.70
2019-05-09T23:06:45.897Z,6.43
2019-05-09T23:09:14.179Z,5.70
2019-05-09T23:11:42.455Z,6.37
2019-05-09T23:14:10.730Z,5.87
2019-05-09T23:19:27.953Z,6.20
2019-05-09T23:21:56.224Z,5.37
2019-05-09T23:29:52.391Z,7.10
2019-05-09T23:34:59.619Z,5.83
2019-05-09T23:37:27.897Z,5.87
2019-05-09T23:42:35.124Z,5.40
2019-05-09T23:48:05.008Z,5.40
2019-05-09T23:50:33.268Z,6.07
2019-05-09T23:53:01.535Z,5.93
2019-05-09T23:55:48.916Z,5.43
2019-05-09T23:58:36.311Z,6.60
